Terminal Aerodrome Forecast
Issued by NWS

Home | Current Version | Previous Version | Text Only | Print | Product List | Glossary On
Versions: 1 2 3 4 5 6 7 8 9 10 11 12 13 14 15
000
FTUS43 KILX 230536
TAFBMI
TAF
KBMI 230536Z 2306/2406 11006KT P6SM OVC120
     FM231700 18012KT P6SM SCT050 OVC120
     FM240000 15007KT P6SM OVC080=

USA.gov is the U.S. government's official web portal to all federal, state and local government web resources and services.